createdAt,value
2023-02-14T00:02:21.853Z,16.65
2023-02-14T00:05:23.364Z,16.64
2023-02-14T00:08:24.866Z,16.62
2023-02-14T00:11:26.394Z,16.62
2023-02-14T00:14:46.407Z,16.60
2023-02-14T00:17:49.666Z,16.59
2023-02-14T00:20:51.344Z,16.56
2023-02-14T00:23:52.834Z,16.55
2023-02-14T00:26:54.587Z,16.53
2023-02-14T00:29:58.207Z,16.52
2023-02-14T00:32:59.729Z,16.50
2023-02-14T00:36:04.110Z,16.50
2023-02-14T00:39:07.716Z,16.49
2023-02-14T00:42:13.607Z,16.46
2023-02-14T00:45:18.865Z,16.46
2023-02-14T00:48:20.394Z,16.46
2023-02-14T00:51:22.501Z,16.45
2023-02-14T00:54:24.883Z,16.44
2023-02-14T00:57:26.640Z,16.45
2023-02-14T01:00:28.131Z,16.45
2023-02-14T01:03:30.759Z,16.45
2023-02-14T01:06:32.275Z,16.45
2023-02-14T01:09:33.909Z,16.46
2023-02-14T01:12:36.819Z,16.46
2023-02-14T01:15:44.226Z,16.45
2023-02-14T01:18:46.376Z,16.45
2023-02-14T01:21:47.850Z,16.44
2023-02-14T01:24:49.360Z,16.44
2023-02-14T01:27:50.936Z,16.42
2023-02-14T01:30:52.421Z,16.42
2023-02-14T01:33:55.080Z,16.42
2023-02-14T01:36:56.576Z,16.41
2023-02-14T01:39:58.074Z,16.40
2023-02-14T01:42:59.561Z,16.39
2023-02-14T01:46:01.190Z,16.39
2023-02-14T01:49:13.224Z,16.38
2023-02-14T01:52:20.603Z,16.38
2023-02-14T01:55:26.828Z,16.37
2023-02-14T01:58:34.849Z,16.35
2023-02-14T02:01:36.608Z,16.32
2023-02-14T02:04:40.620Z,16.32
2023-02-14T02:07:42.374Z,16.30
2023-02-14T02:10:43.867Z,16.29
2023-02-14T02:13:45.324Z,16.28
2023-02-14T02:17:20.492Z,16.28
2023-02-14T02:20:29.001Z,16.25
2023-02-14T02:23:41.262Z,16.25
2023-02-14T02:27:08.525Z,16.24
2023-02-14T02:30:34.748Z,16.25
2023-02-14T02:33:45.299Z,16.23
2023-02-14T02:37:05.482Z,16.23
2023-02-14T02:40:33.254Z,16.23
2023-02-14T02:44:08.868Z,16.25
2023-02-14T02:47:23.551Z,16.24
2023-02-14T02:51:10.666Z,16.23
2023-02-14T02:54:23.450Z,16.25
2023-02-14T02:57:31.588Z,16.24
2023-02-14T03:00:33.575Z,16.23
2023-02-14T03:03:55.815Z,16.24
2023-02-14T03:06:58.586Z,16.24
2023-02-14T03:10:21.392Z,16.25
2023-02-14T03:13:29.021Z,16.23
2023-02-14T03:16:34.627Z,16.24
2023-02-14T03:20:15.043Z,16.23
2023-02-14T03:23:35.942Z,16.22
2023-02-14T03:26:51.543Z,16.20
2023-02-14T03:30:02.209Z,16.18
2023-02-14T03:33:27.474Z,16.19
2023-02-14T03:36:56.486Z,16.19
2023-02-14T03:40:04.661Z,16.18
2023-02-14T03:43:10.323Z,16.15
2023-02-14T03:46:23.379Z,16.15
2023-02-14T03:49:30.718Z,16.13
2023-02-14T03:52:34.476Z,16.13
2023-02-14T03:56:02.315Z,16.12
2023-02-14T03:59:20.539Z,16.12
2023-02-14T04:02:50.854Z,16.12
2023-02-14T04:05:52.709Z,16.10
2023-02-14T04:08:54.256Z,16.10
2023-02-14T04:11:56.115Z,16.12
2023-02-14T04:14:57.607Z,16.13
2023-02-14T04:18:18.022Z,16.14
2023-02-14T04:21:19.576Z,16.17
2023-02-14T04:24:21.125Z,16.19
2023-02-14T04:27:22.596Z,16.20
2023-02-14T04:30:24.175Z,16.23
2023-02-14T04:33:25.741Z,16.26
2023-02-14T04:36:27.201Z,16.28
2023-02-14T04:39:29.047Z,16.32
2023-02-14T04:42:30.601Z,16.33
2023-02-14T04:45:32.133Z,16.35
2023-02-14T04:48:33.627Z,16.34
2023-02-14T04:51:35.133Z,16.35
2023-02-14T04:54:36.636Z,16.35
2023-02-14T04:57:38.153Z,16.34
2023-02-14T05:00:39.640Z,16.35
2023-02-14T05:03:41.110Z,16.36
2023-02-14T05:06:42.628Z,16.35
2023-02-14T05:09:44.147Z,16.35
2023-02-14T05:12:45.675Z,16.34
2023-02-14T05:15:47.234Z,16.34
2023-02-14T05:18:48.909Z,16.34
2023-02-14T05:21:50.410Z,16.32
2023-02-14T05:24:51.938Z,16.32
2023-02-14T05:27:53.458Z,16.30
2023-02-14T05:30:56.890Z,16.30
2023-02-14T05:33:58.443Z,16.29
2023-02-14T05:37:00.001Z,16.28
2023-02-14T05:40:01.537Z,16.27
2023-02-14T05:43:03.016Z,16.26
2023-02-14T05:46:04.835Z,16.24
2023-02-14T05:49:06.351Z,16.22
2023-02-14T05:52:07.804Z,16.21
2023-02-14T05:55:10.268Z,16.20
2023-02-14T05:58:12.539Z,16.19
2023-02-14T06:01:14.305Z,16.18
2023-02-14T06:04:15.808Z,16.19
2023-02-14T06:07:17.666Z,16.21
2023-02-14T06:10:25.526Z,16.23
2023-02-14T06:13:27.019Z,16.24
2023-02-14T06:16:28.657Z,16.26
2023-02-14T06:19:30.174Z,16.27
2023-02-14T06:22:31.702Z,16.30
2023-02-14T06:25:33.348Z,16.32
2023-02-14T06:28:34.851Z,16.35
2023-02-14T06:31:36.466Z,16.35
2023-02-14T06:34:39.790Z,16.36
2023-02-14T06:37:42.210Z,16.37
2023-02-14T06:40:43.794Z,16.37
2023-02-14T06:43:48.578Z,16.36
2023-02-14T06:46:50.115Z,16.36
2023-02-14T06:49:51.566Z,16.35
2023-02-14T06:52:53.057Z,16.36
2023-02-14T06:55:54.860Z,16.36
2023-02-14T06:58:56.303Z,16.34
2023-02-14T07:01:57.860Z,16.33
2023-02-14T07:04:59.354Z,16.32
2023-02-14T07:08:01.191Z,16.32
2023-02-14T07:11:03.063Z,16.28
2023-02-14T07:14:04.736Z,16.28
2023-02-14T07:17:06.245Z,16.28
2023-02-14T07:20:09.264Z,16.26
2023-02-14T07:23:11.073Z,16.24
2023-02-14T07:26:17.830Z,16.23
2023-02-14T07:29:19.344Z,16.22
2023-02-14T07:32:21.050Z,16.21
2023-02-14T07:35:22.822Z,16.20
2023-02-14T07:38:24.747Z,16.18
2023-02-14T07:41:26.191Z,16.16
2023-02-14T07:44:27.738Z,16.16
2023-02-14T07:47:29.245Z,16.15
2023-02-14T07:50:30.853Z,16.13
2023-02-14T07:53:32.448Z,16.12
2023-02-14T07:56:33.999Z,16.10
2023-02-14T07:59:35.538Z,16.09
2023-02-14T08:02:37.087Z,16.07
2023-02-14T08:05:38.968Z,16.07
2023-02-14T08:08:40.459Z,16.05
2023-02-14T08:12:00.542Z,16.03
2023-02-14T08:15:22.032Z,16.03
2023-02-14T08:18:23.586Z,16.01
2023-02-14T08:21:25.169Z,16.02
2023-02-14T08:24:26.743Z,16.00
2023-02-14T08:27:28.197Z,15.99
2023-02-14T08:30:30.440Z,16.00
2023-02-14T08:33:32.464Z,15.99
2023-02-14T08:36:34.922Z,16.00
2023-02-14T08:39:36.433Z,16.00
2023-02-14T08:42:38.053Z,16.01
2023-02-14T08:45:40.155Z,16.02
2023-02-14T08:48:41.737Z,16.01
2023-02-14T08:51:43.264Z,16.01
2023-02-14T08:54:44.868Z,16.02
2023-02-14T08:57:46.431Z,16.01
2023-02-14T09:00:47.961Z,16.02
2023-02-14T09:03:49.707Z,16.02
2023-02-14T09:06:51.272Z,16.01
2023-02-14T09:09:52.856Z,16.01
2023-02-14T09:12:54.404Z,16.02
2023-02-14T09:15:55.918Z,16.00
2023-02-14T09:18:57.472Z,16.01
2023-02-14T09:21:59.046Z,16.01
2023-02-14T09:25:01.010Z,16.00
2023-02-14T09:28:02.480Z,15.99
2023-02-14T09:31:15.943Z,15.98
2023-02-14T09:34:17.474Z,15.97
2023-02-14T09:37:37.362Z,15.97
2023-02-14T09:40:38.987Z,15.97
2023-02-14T09:44:17.022Z,15.99
2023-02-14T09:47:42.322Z,16.00
2023-02-14T09:50:49.594Z,16.00
2023-02-14T09:54:00.598Z,16.03
2023-02-14T09:57:21.731Z,16.06
2023-02-14T10:00:34.500Z,16.07
2023-02-14T10:03:54.620Z,16.08
2023-02-14T10:07:23.237Z,16.12
2023-02-14T10:10:30.938Z,16.12
2023-02-14T10:13:42.015Z,16.14
2023-02-14T10:16:53.601Z,16.15
2023-02-14T10:20:01.797Z,16.17
2023-02-14T10:23:17.429Z,16.17
2023-02-14T10:26:27.615Z,16.19
2023-02-14T10:29:29.403Z,16.20
2023-02-14T10:32:38.270Z,16.21
2023-02-14T10:35:50.537Z,16.23
2023-02-14T10:39:25.443Z,16.23
2023-02-14T10:42:52.155Z,16.25
2023-02-14T10:46:18.279Z,16.25
2023-02-14T10:49:19.812Z,16.24
2023-02-14T10:52:34.320Z,16.25
2023-02-14T10:55:56.767Z,16.26
2023-02-14T10:59:02.715Z,16.27
2023-02-14T11:02:06.268Z,16.27
2023-02-14T11:05:17.817Z,16.27
2023-02-14T11:08:22.983Z,16.28
2023-02-14T11:11:30.447Z,16.29
2023-02-14T11:14:35.844Z,16.29
2023-02-14T11:17:37.929Z,16.29
2023-02-14T11:20:39.374Z,16.28
2023-02-14T11:23:42.467Z,16.29
2023-02-14T11:26:49.972Z,16.30
2023-02-14T11:29:54.056Z,16.29
2023-02-14T11:32:56.420Z,16.30
2023-02-14T11:35:58.624Z,16.30
2023-02-14T11:39:20.859Z,16.30
2023-02-14T11:42:38.582Z,16.32
2023-02-14T11:45:45.473Z,16.31
2023-02-14T11:49:04.881Z,16.32
2023-02-14T11:52:15.850Z,16.32
2023-02-14T11:55:35.590Z,16.26
2023-02-14T11:58:43.224Z,16.16
2023-02-14T12:01:46.493Z,16.09
2023-02-14T12:04:52.820Z,16.05
2023-02-14T12:07:57.545Z,16.01
2023-02-14T12:11:17.630Z,15.92
2023-02-14T12:14:23.529Z,15.88
2023-02-14T12:17:37.490Z,15.85
2023-02-14T12:20:49.330Z,15.82
2023-02-14T12:23:51.165Z,15.79
2023-02-14T12:27:24.608Z,15.82
2023-02-14T12:30:31.077Z,15.82
2023-02-14T12:33:32.579Z,15.83
2023-02-14T12:36:52.671Z,15.85
2023-02-14T12:40:10.826Z,15.85
2023-02-14T12:43:54.138Z,15.84
2023-02-14T12:47:15.159Z,15.82
2023-02-14T12:50:16.704Z,15.79
2023-02-14T12:53:27.318Z,15.77
2023-02-14T12:56:56.494Z,15.75
2023-02-14T13:00:09.962Z,15.72
2023-02-14T13:03:20.552Z,15.70
2023-02-14T13:06:29.373Z,15.66
2023-02-14T13:09:49.260Z,15.65
2023-02-14T13:13:01.004Z,15.63
2023-02-14T13:16:35.254Z,15.64
2023-02-14T13:20:04.051Z,15.64
2023-02-14T13:23:13.507Z,15.65
2023-02-14T13:26:20.282Z,15.64
2023-02-14T13:29:28.875Z,15.68
2023-02-14T13:32:36.855Z,15.70
2023-02-14T13:35:39.599Z,15.71
2023-02-14T13:41:56.702Z,15.74
2023-02-14T13:44:58.374Z,15.75
2023-02-14T13:48:26.760Z,15.78
2023-02-14T13:51:46.195Z,15.79
2023-02-14T13:54:48.611Z,15.79
2023-02-14T13:58:17.118Z,15.82
2023-02-14T14:01:33.943Z,15.84
2023-02-14T14:04:37.371Z,15.84
2023-02-14T14:07:38.930Z,15.84
2023-02-14T14:10:55.543Z,15.87
2023-02-14T14:13:59.502Z,15.86
2023-02-14T14:17:01.078Z,15.88
2023-02-14T14:20:20.609Z,15.90
2023-02-14T14:23:30.112Z,15.89
2023-02-14T14:26:44.786Z,15.90
2023-02-14T14:29:49.947Z,15.92
2023-02-14T14:32:51.696Z,15.91
2023-02-14T14:35:59.777Z,15.94
2023-02-14T14:39:01.665Z,15.92
2023-02-14T14:42:09.720Z,15.94
2023-02-14T14:45:24.772Z,15.95
2023-02-14T14:48:45.488Z,15.96
2023-02-14T14:51:48.463Z,16.00
2023-02-14T14:54:50.030Z,16.00
2023-02-14T14:57:56.709Z,15.99
2023-02-14T15:00:58.318Z,15.98
2023-02-14T15:04:25.511Z,15.96
2023-02-14T15:07:32.720Z,15.95
2023-02-14T15:10:34.972Z,15.95
2023-02-14T15:13:53.486Z,15.95
2023-02-14T15:17:00.517Z,15.93
2023-02-14T15:20:09.760Z,15.92
2023-02-14T15:23:19.766Z,15.91
2023-02-14T15:26:31.521Z,15.91
2023-02-14T15:29:33.487Z,15.89
2023-02-14T15:32:37.148Z,15.88
2023-02-14T15:35:43.897Z,15.89
2023-02-14T15:38:45.675Z,15.87
2023-02-14T15:41:47.188Z,15.86
2023-02-14T15:44:48.972Z,15.86
2023-02-14T15:47:56.971Z,15.87
2023-02-14T15:51:01.412Z,15.89
2023-02-14T15:54:21.354Z,15.90
2023-02-14T15:57:26.329Z,15.92
2023-02-14T16:00:28.128Z,15.93
2023-02-14T16:03:33.873Z,15.96
2023-02-14T16:06:44.726Z,15.99
2023-02-14T16:09:48.046Z,15.99
2023-02-14T16:12:59.383Z,16.02
2023-02-14T16:16:04.175Z,16.04
2023-02-14T16:19:32.400Z,16.06
2023-02-14T16:22:33.868Z,16.07
2023-02-14T16:25:35.368Z,16.09
2023-02-14T16:28:37.636Z,16.11
2023-02-14T16:32:06.135Z,16.14
2023-02-14T16:35:05.423Z,16.16
2023-02-14T16:38:12.465Z,16.20
2023-02-14T16:41:20.116Z,16.22
2023-02-14T16:44:22.463Z,16.22
2023-02-14T16:47:27.599Z,16.23
2023-02-14T16:50:29.162Z,16.24
2023-02-14T16:53:31.673Z,16.27
2023-02-14T16:56:37.034Z,16.28
2023-02-14T16:59:38.500Z,16.27
2023-02-14T17:02:41.415Z,16.27
2023-02-14T17:05:44.876Z,16.27
2023-02-14T17:08:49.599Z,16.28
2023-02-14T17:11:53.825Z,16.29
2023-02-14T17:14:59.313Z,16.29
2023-02-14T17:18:08.719Z,16.30
2023-02-14T17:21:10.322Z,16.29
2023-02-14T17:24:11.838Z,16.30
2023-02-14T17:27:15.454Z,16.31
2023-02-14T17:30:17.657Z,16.33
2023-02-14T17:33:20.035Z,16.34
2023-02-14T17:36:23.288Z,16.35
2023-02-14T17:39:24.846Z,16.35
2023-02-14T17:42:26.334Z,16.38
2023-02-14T17:45:27.956Z,16.39
2023-02-14T17:48:29.455Z,16.40
2023-02-14T17:51:30.989Z,16.39
2023-02-14T17:54:36.938Z,16.41
2023-02-14T17:57:40.820Z,16.41
2023-02-14T18:00:43.152Z,16.41
2023-02-14T18:03:45.170Z,16.41
2023-02-14T18:06:46.746Z,16.42
2023-02-14T18:09:48.212Z,16.42
2023-02-14T18:12:49.729Z,16.42
2023-02-14T18:15:52.855Z,16.43
2023-02-14T18:18:54.928Z,16.43
2023-02-14T18:21:56.442Z,16.42
2023-02-14T18:24:58.765Z,16.44
2023-02-14T18:28:00.350Z,16.43
2023-02-14T18:31:28.363Z,16.44
2023-02-14T18:34:30.020Z,16.43
2023-02-14T18:37:31.502Z,16.42
2023-02-14T18:40:33.264Z,16.42
2023-02-14T18:43:35.614Z,16.42
2023-02-14T18:46:37.410Z,16.43
2023-02-14T18:49:38.920Z,16.41
2023-02-14T18:52:40.451Z,16.42
2023-02-14T18:55:41.922Z,16.42
2023-02-14T18:58:50.480Z,16.42
2023-02-14T19:01:52.083Z,16.42
2023-02-14T19:04:53.894Z,16.42
2023-02-14T19:07:58.044Z,16.43
2023-02-14T19:10:59.857Z,16.43
2023-02-14T19:14:05.142Z,16.44
2023-02-14T19:17:07.000Z,16.44
2023-02-14T19:20:09.027Z,16.44
2023-02-14T19:23:10.591Z,16.44
2023-02-14T19:26:18.120Z,16.45
2023-02-14T19:29:20.998Z,16.45
2023-02-14T19:32:22.546Z,16.46
2023-02-14T19:35:24.239Z,16.45
2023-02-14T19:38:26.897Z,16.45
2023-02-14T19:41:31.503Z,16.46
2023-02-14T19:44:33.046Z,16.45
2023-02-14T19:47:46.799Z,16.47
2023-02-14T19:50:49.600Z,16.47
2023-02-14T19:53:52.369Z,16.48
2023-02-14T19:56:56.036Z,16.48
2023-02-14T19:59:57.659Z,16.50
2023-02-14T20:03:02.330Z,16.50
2023-02-14T20:06:04.019Z,16.51
2023-02-14T20:09:06.112Z,16.52
2023-02-14T20:12:07.729Z,16.53
2023-02-14T20:15:10.971Z,16.53
2023-02-14T20:18:12.585Z,16.56
2023-02-14T20:21:28.250Z,16.59
2023-02-14T20:24:31.776Z,16.59
2023-02-14T20:27:33.243Z,16.58
2023-02-14T20:30:34.769Z,16.58
2023-02-14T20:33:36.735Z,16.58
2023-02-14T20:36:38.651Z,16.58
2023-02-14T20:39:40.650Z,16.59
2023-02-14T20:42:42.314Z,16.59
2023-02-14T20:45:43.955Z,16.59
2023-02-14T20:48:45.509Z,16.59
2023-02-14T20:51:49.603Z,16.61
2023-02-14T20:54:51.373Z,16.61
2023-02-14T20:57:53.452Z,16.61
2023-02-14T21:00:56.368Z,16.62
2023-02-14T21:03:58.013Z,16.62
2023-02-14T21:07:03.921Z,16.64
2023-02-14T21:10:07.204Z,16.66
2023-02-14T21:13:08.705Z,16.65
2023-02-14T21:16:16.234Z,16.67
2023-02-14T21:19:17.743Z,16.66
2023-02-14T21:22:19.259Z,16.67
2023-02-14T21:25:23.397Z,16.66
2023-02-14T21:28:25.815Z,16.67
2023-02-14T21:31:27.724Z,16.67
2023-02-14T21:34:29.318Z,16.67
2023-02-14T21:37:32.216Z,16.70
2023-02-14T21:40:33.701Z,16.69
2023-02-14T21:43:37.237Z,16.71
2023-02-14T21:46:39.335Z,16.70
2023-02-14T21:49:59.145Z,16.70
2023-02-14T21:53:00.629Z,16.70
2023-02-14T21:56:05.260Z,16.70
2023-02-14T21:59:07.542Z,16.72
2023-02-14T22:02:11.236Z,16.73
2023-02-14T22:05:12.683Z,16.73
2023-02-14T22:08:14.157Z,16.73
2023-02-14T22:11:15.785Z,16.73
2023-02-14T22:14:17.454Z,16.73
2023-02-14T22:17:18.909Z,16.73
2023-02-14T22:20:20.385Z,16.75
2023-02-14T22:23:24.536Z,16.72
2023-02-14T22:26:28.689Z,16.73
2023-02-14T22:29:30.232Z,16.71
2023-02-14T22:32:31.957Z,16.71
2023-02-14T22:35:33.439Z,16.70
2023-02-14T22:38:36.224Z,16.70
2023-02-14T22:41:37.950Z,16.69
2023-02-14T22:44:39.529Z,16.70
2023-02-14T22:47:40.989Z,16.69
2023-02-14T22:50:42.483Z,16.70
2023-02-14T22:53:43.961Z,16.68
2023-02-14T22:56:47.681Z,16.69
2023-02-14T22:59:49.154Z,16.68
2023-02-14T23:02:50.716Z,16.67
2023-02-14T23:05:58.527Z,16.66
2023-02-14T23:09:00.916Z,16.65
2023-02-14T23:12:02.396Z,16.63
2023-02-14T23:15:22.357Z,16.63
2023-02-14T23:18:42.211Z,16.62
2023-02-14T23:21:55.754Z,16.62
2023-02-14T23:24:59.519Z,16.60
2023-02-14T23:28:01.070Z,16.58
2023-02-14T23:31:02.928Z,16.57
2023-02-14T23:34:04.646Z,16.55
2023-02-14T23:37:06.667Z,16.53
2023-02-14T23:40:09.749Z,16.52
2023-02-14T23:43:11.248Z,16.51
2023-02-14T23:46:12.755Z,16.49
2023-02-14T23:49:15.234Z,16.48
2023-02-14T23:52:16.698Z,16.46
2023-02-14T23:55:18.171Z,16.44
2023-02-14T23:58:19.649Z,16.44
